createdAt,value
2019-04-04T00:00:30.053Z,88.20
2019-04-04T00:02:58.585Z,88.30
2019-04-04T00:05:27.070Z,88.20
2019-04-04T00:07:55.494Z,88.20
2019-04-04T00:10:23.957Z,88.00
2019-04-04T00:12:52.469Z,88.20
2019-04-04T00:15:20.921Z,88.20
2019-04-04T00:17:49.385Z,88.30
2019-04-04T00:20:17.939Z,88.00
2019-04-04T00:22:46.473Z,87.90
2019-04-04T00:25:15.010Z,88.20
2019-04-04T00:27:43.985Z,87.10
2019-04-04T00:30:13.623Z,87.10
2019-04-04T00:32:42.134Z,87.30
2019-04-04T00:35:10.646Z,87.50
2019-04-04T00:37:41.044Z,85.80
2019-04-04T00:40:11.631Z,85.80
2019-04-04T00:42:39.762Z,85.50
2019-04-04T00:45:08.375Z,84.70
2019-04-04T00:47:36.950Z,84.20
2019-04-04T00:50:07.213Z,84.60
2019-04-04T00:52:35.742Z,84.10
2019-04-04T00:55:06.332Z,84.60
2019-04-04T00:57:34.819Z,83.50
2019-04-04T01:00:03.797Z,83.50
2019-04-04T01:02:32.246Z,84.50
2019-04-04T01:05:01.575Z,83.30
2019-04-04T01:07:30.836Z,83.50
2019-04-04T01:09:59.369Z,84.00
2019-04-04T01:12:27.943Z,84.50
2019-04-04T01:14:58.100Z,84.20
2019-04-04T01:17:26.741Z,83.90
2019-04-04T01:19:55.261Z,84.70
2019-04-04T01:22:26.689Z,84.40
2019-04-04T01:24:55.223Z,85.40
2019-04-04T01:27:23.698Z,86.10
2019-04-04T01:29:52.160Z,86.50
2019-04-04T01:32:20.729Z,86.90
2019-04-04T01:34:51.774Z,87.00
2019-04-04T01:37:19.555Z,87.40
2019-04-04T01:39:48.087Z,87.80
2019-04-04T01:42:16.639Z,88.20
2019-04-04T01:44:45.158Z,88.20
2019-04-04T01:47:14.946Z,88.40
2019-04-04T01:49:43.923Z,86.20
2019-04-04T01:52:12.485Z,85.80
2019-04-04T01:54:42.547Z,86.00
2019-04-04T01:57:11.002Z,86.20
2019-04-04T01:59:39.529Z,87.00
2019-04-04T02:02:08.011Z,87.90
2019-04-04T02:04:36.548Z,86.80
2019-04-04T02:07:05.073Z,87.50
2019-04-04T02:09:34.610Z,87.80
2019-04-04T02:12:03.249Z,88.50
2019-04-04T02:14:31.713Z,88.60
2019-04-04T02:17:00.237Z,88.30
2019-04-04T02:19:28.710Z,88.40
2019-04-04T02:21:57.848Z,88.70
2019-04-04T02:24:27.414Z,88.80
2019-04-04T02:26:55.894Z,88.20
2019-04-04T02:29:24.490Z,88.60
2019-04-04T02:31:54.740Z,88.40
2019-04-04T02:34:23.289Z,88.90
2019-04-04T02:36:51.810Z,88.90
2019-04-04T02:39:20.805Z,89.50
2019-04-04T02:41:49.417Z,89.50
2019-04-04T02:44:18.179Z,89.90
2019-04-04T02:46:46.651Z,90.00
2019-04-04T02:49:15.312Z,90.20
2019-04-04T02:51:43.869Z,90.40
2019-04-04T02:54:12.488Z,90.50
2019-04-04T02:56:41.128Z,90.80
2019-04-04T02:59:09.681Z,90.90
2019-04-04T03:01:38.240Z,91.20
2019-04-04T03:04:06.788Z,91.40
2019-04-04T03:06:35.357Z,91.50
2019-04-04T03:09:09.035Z,91.50
2019-04-04T03:11:35.889Z,91.40
2019-04-04T03:14:04.849Z,91.40
2019-04-04T03:16:33.561Z,91.40
2019-04-04T03:19:02.313Z,91.20
2019-04-04T03:21:30.823Z,91.90
2019-04-04T03:23:59.320Z,91.70
2019-04-04T03:26:27.835Z,91.90
2019-04-04T03:28:56.378Z,92.20
2019-04-04T03:31:24.952Z,92.10
2019-04-04T03:33:53.603Z,92.30
2019-04-04T03:36:22.099Z,92.50
2019-04-04T03:38:50.920Z,92.80
2019-04-04T03:41:19.365Z,93.30
2019-04-04T03:43:49.002Z,93.20
2019-04-04T03:46:17.792Z,93.30
2019-04-04T03:48:49.829Z,93.40
2019-04-04T03:51:16.566Z,93.40
2019-04-04T03:53:52.699Z,93.50
2019-04-04T03:56:21.240Z,93.60
2019-04-04T03:58:49.728Z,93.80
2019-04-04T04:01:18.212Z,93.90
2019-04-04T04:03:46.706Z,93.90
2019-04-04T04:06:15.306Z,93.40
2019-04-04T04:08:43.962Z,93.50
2019-04-04T04:11:12.517Z,93.60
2019-04-04T04:13:40.983Z,93.90
2019-04-04T04:16:09.547Z,94.00
2019-04-04T04:18:38.190Z,94.10
2019-04-04T04:21:09.750Z,94.30
2019-04-04T04:23:36.867Z,94.30
2019-04-04T04:26:08.195Z,94.30
2019-04-04T04:28:35.602Z,94.50
2019-04-04T04:31:04.078Z,94.60
2019-04-04T04:33:32.547Z,94.70
2019-04-04T04:36:01.119Z,94.60
2019-04-04T04:38:29.589Z,94.80
2019-04-04T04:40:58.066Z,94.70
2019-04-04T04:43:26.607Z,94.80
2019-04-04T04:45:55.073Z,95.00
2019-04-04T04:48:25.942Z,95.00
2019-04-04T04:50:53.788Z,95.00
2019-04-04T04:53:22.344Z,95.10
2019-04-04T04:55:50.868Z,95.10
2019-04-04T04:58:19.466Z,94.90
2019-04-04T05:00:49.592Z,94.80
2019-04-04T05:03:18.179Z,94.90
2019-04-04T05:05:46.695Z,94.40
2019-04-04T05:08:15.303Z,94.40
2019-04-04T05:10:45.683Z,94.50
2019-04-04T05:13:14.016Z,94.50
2019-04-04T05:15:42.475Z,94.60
2019-04-04T05:18:12.020Z,94.50
2019-04-04T05:20:40.790Z,94.40
2019-04-04T05:23:11.086Z,94.20
2019-04-04T05:25:50.573Z,94.00
2019-04-04T05:28:10.808Z,93.80
2019-04-04T05:30:39.933Z,93.60
2019-04-04T05:33:08.473Z,93.50
2019-04-04T05:35:37.834Z,93.30
2019-04-04T05:38:07.867Z,93.10
2019-04-04T05:40:37.136Z,92.80
2019-04-04T05:43:05.647Z,92.60
2019-04-04T05:45:34.305Z,92.30
2019-04-04T05:48:02.839Z,91.20
2019-04-04T05:50:31.668Z,91.40
2019-04-04T05:53:00.215Z,91.60
2019-04-04T05:55:28.768Z,91.50
2019-04-04T05:57:57.282Z,91.30
2019-04-04T06:00:27.285Z,91.20
2019-04-04T06:02:56.117Z,91.00
2019-04-04T06:05:26.896Z,91.00
2019-04-04T06:07:54.765Z,91.20
2019-04-04T06:10:23.281Z,91.20
2019-04-04T06:12:54.337Z,91.30
2019-04-04T06:15:21.984Z,91.20
2019-04-04T06:17:50.505Z,90.80
2019-04-04T06:20:19.123Z,90.40
2019-04-04T06:22:47.666Z,90.80
2019-04-04T06:25:16.239Z,90.30
2019-04-04T06:27:44.802Z,88.80
2019-04-04T06:30:13.353Z,88.50
2019-04-04T06:32:41.819Z,87.60
2019-04-04T06:35:10.360Z,87.50
2019-04-04T06:37:39.042Z,88.20
2019-04-04T06:40:07.898Z,87.60
2019-04-04T06:42:37.146Z,87.30
2019-04-04T06:45:07.168Z,87.10
2019-04-04T06:47:35.726Z,87.80
2019-04-04T06:50:07.401Z,87.80
2019-04-04T06:52:35.324Z,87.70
2019-04-04T06:55:05.016Z,87.10
2019-04-04T06:57:34.190Z,85.80
2019-04-04T07:00:05.989Z,86.10
2019-04-04T07:02:34.475Z,85.80
2019-04-04T07:05:06.995Z,86.00
2019-04-04T07:07:35.731Z,85.60
2019-04-04T07:10:06.040Z,85.10
2019-04-04T07:12:37.780Z,83.40
2019-04-04T07:15:11.211Z,83.00
2019-04-04T07:17:40.382Z,83.10
2019-04-04T07:20:08.692Z,82.50
2019-04-04T07:22:37.253Z,80.90
2019-04-04T07:25:09.101Z,80.30
2019-04-04T07:27:39.259Z,79.80
2019-04-04T07:30:15.179Z,80.00
2019-04-04T07:32:42.395Z,78.40
2019-04-04T07:35:11.190Z,76.10
2019-04-04T07:37:39.675Z,75.60
2019-04-04T07:40:09.348Z,75.30
2019-04-04T07:42:40.181Z,74.60
2019-04-04T07:45:08.607Z,75.40
2019-04-04T07:47:37.118Z,76.50
2019-04-04T07:50:06.636Z,76.70
2019-04-04T07:52:35.191Z,76.60
2019-04-04T07:55:04.056Z,77.60
2019-04-04T07:57:32.570Z,78.90
2019-04-04T08:00:01.050Z,78.70
2019-04-04T08:02:29.796Z,78.70
2019-04-04T08:05:00.117Z,79.00
2019-04-04T08:07:28.580Z,79.20
2019-04-04T08:09:57.597Z,77.50
2019-04-04T08:12:26.132Z,76.40
2019-04-04T08:14:54.883Z,76.30
2019-04-04T08:17:23.365Z,75.50
2019-04-04T08:19:59.472Z,74.80
2019-04-04T08:22:22.185Z,74.80
2019-04-04T08:24:50.796Z,74.30
2019-04-04T08:27:19.298Z,74.60
2019-04-04T08:29:47.767Z,76.00
2019-04-04T08:32:16.246Z,76.60
2019-04-04T08:34:44.765Z,77.40
2019-04-04T08:37:13.296Z,77.60
2019-04-04T08:39:41.734Z,77.60
2019-04-04T08:42:10.313Z,77.50
2019-04-04T08:44:38.855Z,77.50
2019-04-04T08:47:07.442Z,78.10
2019-04-04T08:49:35.901Z,78.50
2019-04-04T08:52:16.030Z,78.50
2019-04-04T08:54:34.642Z,79.00
2019-04-04T08:57:03.196Z,79.30
2019-04-04T08:59:31.670Z,79.00
2019-04-04T09:02:00.166Z,79.50
2019-04-04T09:04:28.689Z,79.50
2019-04-04T09:06:57.298Z,79.30
2019-04-04T09:09:25.842Z,78.90
2019-04-04T09:11:54.421Z,79.00
2019-04-04T09:14:22.932Z,80.10
2019-04-04T09:16:51.674Z,81.00
2019-04-04T09:19:20.278Z,80.70
2019-04-04T09:21:48.756Z,80.70
2019-04-04T09:24:17.232Z,81.50
2019-04-04T09:26:45.678Z,82.30
2019-04-04T09:29:14.169Z,82.50
2019-04-04T09:31:42.701Z,82.50
2019-04-04T09:34:11.284Z,81.20
2019-04-04T09:36:39.861Z,79.70
2019-04-04T09:39:08.332Z,78.60
2019-04-04T09:41:36.915Z,77.50
2019-04-04T09:44:06.197Z,78.50
2019-04-04T09:46:35.011Z,78.70
2019-04-04T09:49:03.722Z,78.00
2019-04-04T09:51:32.324Z,77.80
2019-04-04T09:54:00.862Z,77.40
2019-04-04T09:56:29.428Z,74.70
2019-04-04T09:58:58.014Z,74.50
2019-04-04T10:01:28.101Z,73.10
2019-04-04T10:03:56.613Z,71.80
2019-04-04T10:06:26.108Z,72.50
2019-04-04T10:08:54.691Z,71.10
2019-04-04T10:11:23.203Z,69.50
2019-04-04T10:13:51.790Z,70.60
2019-04-04T10:16:20.459Z,69.70
2019-04-04T10:18:49.000Z,68.90
2019-04-04T10:21:17.524Z,68.90
2019-04-04T10:23:46.092Z,69.50
2019-04-04T10:26:14.691Z,69.10
2019-04-04T10:28:43.251Z,68.80
2019-04-04T10:31:12.099Z,68.30
2019-04-04T10:33:46.969Z,68.70
2019-04-04T10:36:15.631Z,68.10
2019-04-04T10:38:44.093Z,67.90
2019-04-04T10:41:12.721Z,68.50
2019-04-04T10:43:41.231Z,67.90
2019-04-04T10:46:09.768Z,67.30
2019-04-04T10:48:38.366Z,68.40
2019-04-04T10:51:06.846Z,69.30
2019-04-04T10:53:35.339Z,71.40
2019-04-04T10:56:03.874Z,71.90
2019-04-04T10:58:32.346Z,72.10
2019-04-04T11:01:01.079Z,71.90
2019-04-04T11:03:31.650Z,71.90
2019-04-04T11:06:00.283Z,70.90
2019-04-04T11:08:28.902Z,70.50
2019-04-04T11:10:58.961Z,69.30
2019-04-04T11:13:33.302Z,66.60
2019-04-04T11:15:57.825Z,66.70
2019-04-04T11:18:26.402Z,67.00
2019-04-04T11:20:54.962Z,65.80
2019-04-04T11:23:23.442Z,66.80
2019-04-04T11:25:51.904Z,65.80
2019-04-04T11:28:20.366Z,64.80
2019-04-04T11:30:48.984Z,62.10
2019-04-04T11:33:19.111Z,61.80
2019-04-04T11:35:47.718Z,60.10
2019-04-04T11:38:16.407Z,59.90
2019-04-04T11:40:44.862Z,57.20
2019-04-04T11:43:13.322Z,54.70
2019-04-04T11:45:41.827Z,54.20
2019-04-04T11:48:10.362Z,51.90
2019-04-04T11:50:39.934Z,51.20
2019-04-04T11:53:08.602Z,50.20
2019-04-04T11:55:37.075Z,51.00
2019-04-04T11:58:05.574Z,50.40
2019-04-04T12:00:35.706Z,51.30
2019-04-04T12:03:04.328Z,51.20
2019-04-04T12:05:32.963Z,50.60
2019-04-04T12:08:01.423Z,51.20
2019-04-04T12:10:29.883Z,52.20
2019-04-04T12:12:58.781Z,52.90
2019-04-04T12:15:27.341Z,53.00
2019-04-04T12:17:55.827Z,53.10
2019-04-04T12:20:24.381Z,53.10
2019-04-04T12:22:52.870Z,53.50
2019-04-04T12:25:21.318Z,53.40
2019-04-04T12:27:49.778Z,55.20
2019-04-04T12:30:20.574Z,56.50
2019-04-04T12:32:48.414Z,56.50
2019-04-04T12:35:16.889Z,57.20
2019-04-04T12:37:45.328Z,57.80
2019-04-04T12:40:20.474Z,57.90
2019-04-04T12:42:44.290Z,58.30
2019-04-04T12:45:12.962Z,57.60
2019-04-04T12:47:41.418Z,56.70
2019-04-04T12:50:10.343Z,55.80
2019-04-04T12:52:38.821Z,54.40
2019-04-04T12:55:07.735Z,54.20
2019-04-04T12:57:42.624Z,54.70
2019-04-04T13:00:11.617Z,54.40
2019-04-04T13:02:40.171Z,55.10
2019-04-04T13:05:28.017Z,55.40
2019-04-04T13:07:56.465Z,56.00
2019-04-04T13:10:32.934Z,55.90
2019-04-04T13:12:55.113Z,55.30
2019-04-04T13:15:23.769Z,54.80
2019-04-04T13:17:52.255Z,55.70
2019-04-04T13:20:21.084Z,55.10
2019-04-04T13:22:49.603Z,55.40
2019-04-04T13:25:18.147Z,54.70
2019-04-04T13:27:46.678Z,55.50
2019-04-04T13:30:15.588Z,55.00
2019-04-04T13:32:44.050Z,55.60
2019-04-04T13:35:12.908Z,57.20
2019-04-04T13:37:41.362Z,56.90
2019-04-04T13:40:10.075Z,56.80
2019-04-04T13:42:38.555Z,57.10
2019-04-04T13:45:07.679Z,57.00
2019-04-04T13:47:38.221Z,56.20
2019-04-04T13:50:08.152Z,56.00
2019-04-04T13:52:36.683Z,56.30
2019-04-04T13:55:06.275Z,56.20
2019-04-04T13:57:39.294Z,56.50
2019-04-04T14:00:09.380Z,56.90
2019-04-04T14:02:37.982Z,57.00
2019-04-04T14:05:10.803Z,57.70
2019-04-04T14:07:39.372Z,57.60
2019-04-04T14:10:08.082Z,58.10
2019-04-04T14:12:36.556Z,57.90
2019-04-04T14:15:09.673Z,57.70
2019-04-04T14:17:38.152Z,57.00
2019-04-04T14:20:09.153Z,57.90
2019-04-04T14:22:37.713Z,58.60
2019-04-04T14:25:07.173Z,57.90
2019-04-04T14:27:35.690Z,58.00
2019-04-04T14:30:06.869Z,58.40
2019-04-04T14:32:35.398Z,58.30
2019-04-04T14:35:05.697Z,57.70
2019-04-04T14:37:34.217Z,57.30
2019-04-04T14:40:03.115Z,56.20
2019-04-04T14:42:31.590Z,57.10
2019-04-04T14:45:02.251Z,57.30
2019-04-04T14:47:32.978Z,56.80
2019-04-04T14:50:00.686Z,57.80
2019-04-04T14:52:29.205Z,58.00
2019-04-04T14:54:57.725Z,58.60
2019-04-04T14:57:26.307Z,57.70
2019-04-04T14:59:54.810Z,55.50
2019-04-04T15:02:23.346Z,54.50
2019-04-04T15:04:51.903Z,54.20
2019-04-04T15:07:20.350Z,53.90
2019-04-04T15:09:54.930Z,54.00
2019-04-04T15:12:25.067Z,53.20
2019-04-04T15:17:29.954Z,53.30
2019-04-04T15:19:58.416Z,54.00
2019-04-04T15:22:27.241Z,52.80
2019-04-04T15:24:55.710Z,53.20
2019-04-04T15:27:24.178Z,53.30
2019-04-04T15:29:52.786Z,53.70
2019-04-04T15:32:21.339Z,53.20
2019-04-04T15:34:49.946Z,53.50
2019-04-04T15:37:18.409Z,54.10
2019-04-04T15:39:46.952Z,53.50
2019-04-04T15:42:15.470Z,54.10
2019-04-04T15:44:43.930Z,53.40
2019-04-04T15:47:12.454Z,53.40
2019-04-04T15:49:40.950Z,52.70
2019-04-04T15:52:09.418Z,53.00
2019-04-04T15:54:37.887Z,53.00
2019-04-04T15:57:06.347Z,52.80
2019-04-04T15:59:34.880Z,53.80
2019-04-04T16:02:03.333Z,53.40
2019-04-04T16:04:31.900Z,53.80
2019-04-04T16:07:00.353Z,53.60
2019-04-04T16:09:28.914Z,54.30
2019-04-04T16:11:57.506Z,54.10
2019-04-04T16:14:25.969Z,54.00
2019-04-04T16:16:54.433Z,54.30
2019-04-04T16:19:23.260Z,53.90
2019-04-04T16:21:51.722Z,54.20
2019-04-04T16:26:49.039Z,54.70
2019-04-04T16:29:17.489Z,54.90
2019-04-04T16:31:45.996Z,55.90
2019-04-04T16:34:14.510Z,56.50
2019-04-04T16:36:43.048Z,60.20
2019-04-04T16:39:11.541Z,65.50
2019-04-04T16:41:40.106Z,66.70
2019-04-04T16:44:08.614Z,67.80
2019-04-04T16:46:37.081Z,68.50
2019-04-04T16:49:05.550Z,69.20
2019-04-04T16:51:34.035Z,70.20
2019-04-04T16:54:02.613Z,70.90
2019-04-04T16:56:31.115Z,71.40
2019-04-04T16:58:59.649Z,72.40
2019-04-04T17:01:28.277Z,72.40
2019-04-04T17:04:01.786Z,73.10
2019-04-04T17:06:29.285Z,73.80
2019-04-04T17:12:14.828Z,74.50
2019-04-04T17:14:39.013Z,74.20
2019-04-04T17:17:07.685Z,74.00
2019-04-04T17:19:36.163Z,74.20
2019-04-04T17:22:04.730Z,74.70
2019-04-04T17:24:33.266Z,76.30
2019-04-04T17:27:01.835Z,77.00
2019-04-04T17:29:30.411Z,76.50
2019-04-04T17:31:59.435Z,77.30
2019-04-04T17:34:29.787Z,77.10
2019-04-04T17:36:58.829Z,76.20
2019-04-04T17:39:28.200Z,75.80
2019-04-04T17:41:56.934Z,76.70
2019-04-04T17:44:25.449Z,76.40
2019-04-04T17:46:54.069Z,77.50
2019-04-04T17:49:22.754Z,78.00
2019-04-04T17:51:51.408Z,78.60
2019-04-04T17:54:20.058Z,79.90
2019-04-04T17:56:49.073Z,80.60
2019-04-04T17:59:17.931Z,81.30
2019-04-04T18:01:46.514Z,81.40
2019-04-04T18:04:15.119Z,82.60
2019-04-04T18:06:43.590Z,81.40
2019-04-04T18:09:12.043Z,80.10
2019-04-04T18:11:40.531Z,77.20
2019-04-04T18:14:09.022Z,76.30
2019-04-04T18:16:37.567Z,76.50
2019-04-04T18:19:06.141Z,76.40
2019-04-04T18:21:34.668Z,76.90
2019-04-04T18:24:03.122Z,77.80
2019-04-04T18:26:31.631Z,79.30
2019-04-04T18:29:00.095Z,81.50
2019-04-04T18:31:28.598Z,82.60
2019-04-04T18:33:57.489Z,84.10
2019-04-04T18:36:26.458Z,84.70
2019-04-04T18:38:55.121Z,85.10
2019-04-04T18:41:23.668Z,85.60
2019-04-04T18:43:52.127Z,86.20
2019-04-04T18:46:20.613Z,86.50
2019-04-04T18:48:51.717Z,86.40
2019-04-04T18:51:20.254Z,86.80
2019-04-04T18:53:55.000Z,86.90
2019-04-04T18:56:18.999Z,87.00
2019-04-04T18:58:50.554Z,87.00
2019-04-04T19:01:19.102Z,86.80
2019-04-04T19:03:47.661Z,86.90
2019-04-04T19:06:16.142Z,86.90
2019-04-04T19:08:44.691Z,86.70
2019-04-04T19:11:21.711Z,86.80
2019-04-04T19:13:50.292Z,87.00
2019-04-04T19:16:18.822Z,87.70
2019-04-04T19:18:47.509Z,87.90
2019-04-04T19:21:16.579Z,88.40
2019-04-04T19:23:49.350Z,88.90
2019-04-04T19:26:15.400Z,88.80
2019-04-04T19:28:43.881Z,89.10
2019-04-04T19:31:12.653Z,89.30
2019-04-04T19:33:41.142Z,89.40
2019-04-04T19:36:09.623Z,90.10
2019-04-04T19:38:38.101Z,89.70
2019-04-04T19:41:07.100Z,89.60
2019-04-04T19:43:35.592Z,89.60
2019-04-04T19:46:04.327Z,89.60
2019-04-04T19:48:32.815Z,90.00
2019-04-04T19:51:01.807Z,89.40
2019-04-04T19:53:30.998Z,90.00
2019-04-04T19:56:02.684Z,90.10
2019-04-04T19:58:31.305Z,90.10
2019-04-04T20:01:00.258Z,90.10
2019-04-04T20:03:29.086Z,90.30
2019-04-04T20:05:57.882Z,90.00
2019-04-04T20:08:26.521Z,90.10
2019-04-04T20:10:55.022Z,89.70
2019-04-04T20:13:30.911Z,90.00
2019-04-04T20:18:27.423Z,90.80
2019-04-04T20:20:56.072Z,90.70
2019-04-04T20:23:24.737Z,90.70
2019-04-04T20:25:54.137Z,90.70
2019-04-04T20:28:23.116Z,90.40
2019-04-04T20:30:52.048Z,89.60
2019-04-04T20:33:21.322Z,90.10
2019-04-04T20:35:50.430Z,90.20
2019-04-04T20:38:19.026Z,90.40
2019-04-04T20:40:47.930Z,90.50
2019-04-04T20:43:18.100Z,90.60
2019-04-04T20:45:46.662Z,90.70
2019-04-04T20:48:15.146Z,90.90
2019-04-04T20:50:44.238Z,91.50
2019-04-04T20:53:12.765Z,91.20
2019-04-04T20:55:42.555Z,91.30
2019-04-04T20:58:11.114Z,91.60
2019-04-04T21:00:39.739Z,91.70
2019-04-04T21:03:08.266Z,91.50
2019-04-04T21:05:36.834Z,91.60
2019-04-04T21:08:06.569Z,91.20
2019-04-04T21:10:35.053Z,91.10
2019-04-04T21:13:03.595Z,91.10
2019-04-04T21:15:33.032Z,91.00
2019-04-04T21:18:01.611Z,91.10
2019-04-04T21:20:30.352Z,90.80
2019-04-04T21:22:58.850Z,90.30
2019-04-04T21:25:30.073Z,90.30
2019-04-04T21:27:58.799Z,90.10
2019-04-04T21:30:30.385Z,88.50
2019-04-04T21:32:58.898Z,88.30
2019-04-04T21:35:30.460Z,89.00
2019-04-04T21:37:59.097Z,89.50
2019-04-04T21:40:28.184Z,90.00
2019-04-04T21:42:58.390Z,90.00
2019-04-04T21:45:26.920Z,90.30
2019-04-04T21:47:56.313Z,90.30
2019-04-04T21:50:27.587Z,90.40
2019-04-04T21:52:57.325Z,90.00
2019-04-04T21:55:25.838Z,89.90
2019-04-04T21:57:54.316Z,89.70
2019-04-04T22:00:23.578Z,89.50
2019-04-04T22:02:52.183Z,89.50
2019-04-04T22:05:20.702Z,89.00
2019-04-04T22:07:49.230Z,87.90
2019-04-04T22:10:17.693Z,87.30
2019-04-04T22:12:46.226Z,86.90
2019-04-04T22:15:14.838Z,86.30
2019-04-04T22:17:43.454Z,86.30
2019-04-04T22:20:13.514Z,86.20
2019-04-04T22:22:41.996Z,86.60
2019-04-04T22:25:10.593Z,87.00
2019-04-04T22:27:39.034Z,86.70
2019-04-04T22:30:08.128Z,87.00
2019-04-04T22:32:38.679Z,86.90
2019-04-04T22:35:08.043Z,87.10
2019-04-04T22:37:36.600Z,87.20
2019-04-04T22:40:08.085Z,87.20
2019-04-04T22:42:37.009Z,87.50
2019-04-04T22:45:07.580Z,87.50
2019-04-04T22:47:36.115Z,87.40
2019-04-04T22:50:06.169Z,87.50
2019-04-04T22:52:34.630Z,87.60
2019-04-04T22:55:03.109Z,87.70
2019-04-04T22:57:31.613Z,87.80
2019-04-04T23:00:01.655Z,88.00
2019-04-04T23:02:31.650Z,88.10
2019-04-04T23:05:01.695Z,88.10
2019-04-04T23:07:33.264Z,88.50
2019-04-04T23:10:01.786Z,88.60
2019-04-04T23:12:30.388Z,89.00
2019-04-04T23:15:00.618Z,89.20
2019-04-04T23:17:30.707Z,89.30
2019-04-04T23:20:00.811Z,89.30
2019-04-04T23:22:30.980Z,89.20
2019-04-04T23:25:01.191Z,89.80
2019-04-04T23:27:32.419Z,89.80
2019-04-04T23:30:02.423Z,89.50
2019-04-04T23:32:32.425Z,89.40
2019-04-04T23:35:04.470Z,90.00
2019-04-04T23:37:32.931Z,90.40
2019-04-04T23:40:01.381Z,90.20
2019-04-04T23:42:32.571Z,90.30
2019-04-04T23:45:06.251Z,90.70
2019-04-04T23:47:42.722Z,91.10
2019-04-04T23:50:06.535Z,91.40
2019-04-04T23:52:35.600Z,91.80
2019-04-04T23:55:05.958Z,91.90
2019-04-04T23:57:34.412Z,92.20
